Time;durP1;ratioP1;P1;durP2;ratioP2;P2;SDS_P1;SDS_P2;PMS_P1;PMS_P2;Temp;Humidity;BMP_temperature;BMP_pressure;BME280_temperature;BME280_humidity;BME280_pressure;Samples;Min_cycle;Max_cycle;Signal;HPM_P1;HPM_P2
2023/04/06 00:00:12;;;;;;;13.98;10.23;;;5.50;99.90;;;;;;5043822;28;20204;-75
2023/04/06 00:02:39;;;;;;;14.43;11.00;;;5.50;99.90;;;;;;5041369;28;20262;-73
2023/04/06 00:05:07;;;;;;;12.30;11.10;;;5.40;99.90;;;;;;5038884;28;20214;-73
2023/04/06 00:07:34;;;;;;;13.10;10.40;;;5.40;99.90;;;;;;5044093;28;20231;-72
2023/04/06 00:10:03;;;;;;;17.30;11.68;;;5.40;99.90;;;;;;5045436;28;20246;-73
2023/04/06 00:12:30;;;;;;;12.35;10.27;;;5.30;99.90;;;;;;5043790;28;20273;-75
2023/04/06 00:14:57;;;;;;;14.00;11.75;;;5.40;99.90;;;;;;5045675;28;20205;-72
2023/04/06 00:17:24;;;;;;;15.00;10.98;;;5.30;99.90;;;;;;5052678;28;20286;-73
2023/04/06 00:19:51;;;;;;;14.57;10.90;;;5.30;99.90;;;;;;5043169;28;20197;-74
2023/04/06 00:22:18;;;;;;;17.85;11.85;;;5.30;99.90;;;;;;5039101;28;20640;-73
2023/04/06 00:24:45;;;;;;;14.18;9.93;;;5.30;99.90;;;;;;5036045;28;20212;-76
2023/04/06 00:27:13;;;;;;;14.55;10.05;;;5.20;99.90;;;;;;5044322;28;20215;-71
2023/04/06 00:29:41;;;;;;;16.83;12.88;;;5.20;99.90;;;;;;5043693;28;20222;-72
2023/04/06 00:32:07;;;;;;;13.55;10.98;;;5.20;99.90;;;;;;5036778;28;20220;-74
2023/04/06 00:34:34;;;;;;;14.23;12.18;;;5.20;99.90;;;;;;5036864;28;20291;-73
2023/04/06 00:37:01;;;;;;;15.98;11.60;;;5.20;99.90;;;;;;5036902;28;20295;-74
2023/04/06 00:39:28;;;;;;;16.10;12.30;;;5.20;99.90;;;;;;5044147;28;20239;-75
2023/04/06 00:41:56;;;;;;;15.43;11.32;;;5.20;99.90;;;;;;5043651;28;20291;-74
2023/04/06 00:44:25;;;;;;;15.80;11.73;;;5.10;99.90;;;;;;5042133;28;20234;-73
2023/04/06 00:46:52;;;;;;;16.02;13.00;;;5.00;99.90;;;;;;5040616;28;20313;-74
2023/04/06 00:49:19;;;;;;;16.33;13.20;;;5.00;99.90;;;;;;5042058;28;20215;-75
2023/04/06 00:51:46;;;;;;;15.02;11.90;;;5.10;99.90;;;;;;5039617;28;20201;-73
2023/04/06 00:54:13;;;;;;;13.48;12.15;;;5.00;99.90;;;;;;5045156;28;20224;-72
2023/04/06 00:56:40;;;;;;;17.13;12.20;;;5.00;99.90;;;;;;5057384;28;20200;-73
2023/04/06 00:59:07;;;;;;;18.25;13.77;;;5.00;99.90;;;;;;5054489;28;20608;-72
2023/04/06 01:01:35;;;;;;;15.20;12.48;;;5.00;99.90;;;;;;5060503;28;20199;-72
2023/04/06 01:04:02;;;;;;;16.00;11.57;;;4.90;99.90;;;;;;5049598;28;20657;-72
2023/04/06 01:06:29;;;;;;;23.10;13.43;;;4.90;99.90;;;;;;5048949;28;20262;-73
2023/04/06 01:08:57;;;;;;;19.98;12.40;;;4.90;99.90;;;;;;5039000;28;20291;-74
2023/04/06 01:11:24;;;;;;;15.13;11.18;;;4.80;99.90;;;;;;5044169;28;20206;-73
2023/04/06 01:13:51;;;;;;;15.30;12.30;;;4.90;99.90;;;;;;5041827;28;20681;-73
2023/04/06 01:16:18;;;;;;;14.48;12.60;;;4.90;99.90;;;;;;5037971;28;20786;-73
2023/04/06 01:18:46;;;;;;;15.50;11.07;;;4.90;99.90;;;;;;5051508;28;20349;-73
2023/04/06 01:21:15;;;;;;;14.35;11.85;;;4.90;99.90;;;;;;5050358;28;20277;-72
2023/04/06 01:23:45;;;;;;;13.13;10.80;;;4.90;99.90;;;;;;5047198;28;20228;-73
2023/04/06 01:26:12;;;;;;;14.60;12.13;;;4.80;99.90;;;;;;5046139;28;20200;-74
2023/04/06 01:28:39;;;;;;;19.65;10.75;;;4.80;99.90;;;;;;5047325;28;20674;-74
2023/04/06 01:31:07;;;;;;;14.77;11.77;;;4.80;99.90;;;;;;5036474;28;20528;-73
2023/04/06 01:33:34;;;;;;;17.70;12.38;;;4.70;99.90;;;;;;5049055;28;20334;-72
2023/04/06 01:36:00;;;;;;;17.65;13.18;;;4.60;99.90;;;;;;5040893;28;20212;-73
2023/04/06 01:38:28;;;;;;;24.73;13.95;;;4.60;99.90;;;;;;5041345;28;20651;-74
2023/04/06 01:40:56;;;;;;;22.58;13.48;;;4.70;99.90;;;;;;5044797;28;20620;-74
2023/04/06 01:43:23;;;;;;;24.85;16.00;;;4.70;99.90;;;;;;5044739;28;20231;-73
2023/04/06 01:45:50;;;;;;;27.33;14.45;;;4.60;99.90;;;;;;5050846;28;20200;-71
2023/04/06 01:48:17;;;;;;;23.02;14.60;;;4.60;99.90;;;;;;5045711;28;20227;-74
2023/04/06 01:50:44;;;;;;;26.15;14.15;;;4.60;99.90;;;;;;5041766;28;20217;-74
2023/04/06 01:53:11;;;;;;;22.15;12.90;;;4.60;99.90;;;;;;5046116;28;20220;-72
2023/04/06 01:55:38;;;;;;;17.30;12.00;;;4.60;99.90;;;;;;5043054;28;20218;-76
2023/04/06 01:58:06;;;;;;;13.13;11.55;;;4.70;99.90;;;;;;5039032;28;20201;-75
2023/04/06 02:00:33;;;;;;;11.52;10.25;;;4.70;99.90;;;;;;5033822;28;20298;-75
2023/04/06 02:03:00;;;;;;;13.55;10.65;;;4.70;99.90;;;;;;5036141;28;20662;-76
2023/04/06 02:05:28;;;;;;;33.22;12.18;;;4.70;99.90;;;;;;5041119;28;20210;-75
2023/04/06 02:07:55;;;;;;;11.63;10.27;;;4.60;99.90;;;;;;5039417;28;20749;-75
2023/04/06 02:10:22;;;;;;;13.20;9.38;;;4.60;99.90;;;;;;5036621;28;20629;-73
2023/04/06 02:12:49;;;;;;;15.90;11.75;;;4.50;99.90;;;;;;5040322;28;20311;-75
2023/04/06 02:15:17;;;;;;;16.60;11.80;;;4.40;99.90;;;;;;5039907;28;20200;-74
2023/04/06 02:17:44;;;;;;;12.65;11.05;;;4.30;99.90;;;;;;5037567;28;20228;-73
2023/04/06 02:20:11;;;;;;;15.43;10.30;;;4.30;99.90;;;;;;5048364;28;20227;-72
2023/04/06 02:22:38;;;;;;;13.38;10.05;;;4.20;99.90;;;;;;5037150;28;20232;-75
2023/04/06 02:25:06;;;;;;;13.80;11.20;;;4.20;99.90;;;;;;5040150;28;20331;-74
2023/04/06 02:27:33;;;;;;;16.67;11.10;;;4.20;99.90;;;;;;5036464;28;20295;-71
2023/04/06 02:30:00;;;;;;;12.07;9.60;;;4.20;99.90;;;;;;5050840;28;20279;-73
2023/04/06 02:32:28;;;;;;;11.35;9.45;;;4.20;99.90;;;;;;5040436;28;20235;-72
2023/04/06 02:34:55;;;;;;;16.27;9.70;;;4.20;99.90;;;;;;5045510;28;20291;-74
2023/04/06 02:37:23;;;;;;;14.90;10.88;;;4.20;99.90;;;;;;5047506;28;20196;-75
2023/04/06 02:39:49;;;;;;;11.05;9.85;;;4.20;99.90;;;;;;5045744;28;20207;-73
2023/04/06 02:42:16;;;;;;;14.35;10.80;;;4.10;99.90;;;;;;5046903;28;20294;-70
2023/04/06 02:44:43;;;;;;;13.10;10.80;;;4.10;99.90;;;;;;5040082;28;20239;-72
2023/04/06 02:47:10;;;;;;;11.77;9.60;;;4.00;99.90;;;;;;5035336;28;20234;-74
2023/04/06 02:49:38;;;;;;;11.90;10.45;;;3.90;99.90;;;;;;5050834;28;20235;-72
2023/04/06 02:52:05;;;;;;;14.38;11.57;;;3.90;99.90;;;;;;5055047;28;20290;-74
2023/04/06 02:54:32;;;;;;;13.05;10.70;;;3.80;99.90;;;;;;5043651;28;20232;-72
2023/04/06 02:56:59;;;;;;;11.60;10.40;;;3.70;99.90;;;;;;5041591;28;20283;-74
2023/04/06 02:59:26;;;;;;;15.80;10.30;;;3.70;99.90;;;;;;5048434;28;20672;-72
2023/04/06 03:01:53;;;;;;;13.65;10.45;;;3.70;99.90;;;;;;5049410;28;20616;-75
2023/04/06 03:04:22;;;;;;;13.23;10.23;;;3.80;99.90;;;;;;5042797;28;20280;-71
2023/04/06 03:06:50;;;;;;;11.82;9.68;;;3.80;99.90;;;;;;5045982;28;20203;-74
2023/04/06 03:09:17;;;;;;;15.10;10.18;;;3.80;99.90;;;;;;5043305;28;20655;-73
2023/04/06 03:11:44;;;;;;;14.32;10.80;;;3.80;99.90;;;;;;5042018;28;20212;-75
2023/04/06 03:14:11;;;;;;;18.40;11.57;;;3.70;99.90;;;;;;5055361;28;20681;-74
2023/04/06 03:16:38;;;;;;;13.30;11.88;;;3.70;99.90;;;;;;5053065;28;20753;-74
2023/04/06 03:19:05;;;;;;;12.13;10.40;;;3.70;99.90;;;;;;5053855;28;20203;-73
2023/04/06 03:21:32;;;;;;;12.40;11.10;;;3.70;99.90;;;;;;5047661;28;20208;-74
2023/04/06 03:24:00;;;;;;;13.68;10.32;;;3.70;99.90;;;;;;5040066;28;20312;-73
2023/04/06 03:26:27;;;;;;;14.05;9.63;;;3.70;99.90;;;;;;5044035;28;20283;-73
2023/04/06 03:28:54;;;;;;;12.77;10.93;;;3.70;99.90;;;;;;5050677;28;20319;-73
2023/04/06 03:31:20;;;;;;;11.50;10.40;;;3.60;99.90;;;;;;5048308;28;20203;-73
2023/04/06 03:33:47;;;;;;;13.38;10.57;;;3.60;99.90;;;;;;5053349;28;20220;-76
2023/04/06 03:36:14;;;;;;;16.00;10.77;;;3.60;99.90;;;;;;5044521;28;20299;-74
2023/04/06 03:38:41;;;;;;;15.15;11.13;;;3.60;99.90;;;;;;5048875;28;20282;-75
2023/04/06 03:41:09;;;;;;;11.82;10.63;;;3.60;99.90;;;;;;5042925;28;20206;-75
2023/04/06 03:43:36;;;;;;;10.90;9.40;;;3.60;99.90;;;;;;5043909;28;20215;-73
2023/04/06 03:46:03;;;;;;;12.15;10.80;;;3.70;99.90;;;;;;5050277;28;20196;-75
2023/04/06 03:48:31;;;;;;;11.65;8.75;;;3.70;99.90;;;;;;5048051;28;20773;-77
2023/04/06 03:50:57;;;;;;;12.57;10.27;;;3.80;99.90;;;;;;5045336;28;20677;-74
2023/04/06 03:53:24;;;;;;;11.13;9.55;;;3.80;99.90;;;;;;5050376;28;20657;-74
2023/04/06 03:55:51;;;;;;;12.68;10.05;;;3.80;99.90;;;;;;5045007;28;20250;-76
2023/04/06 03:58:19;;;;;;;11.77;10.25;;;3.70;99.90;;;;;;5047523;28;20282;-72
2023/04/06 04:00:46;;;;;;;13.55;11.18;;;3.80;99.90;;;;;;5043129;28;20599;-72
2023/04/06 04:03:13;;;;;;;13.68;9.80;;;3.60;99.90;;;;;;5053691;28;20307;-74
2023/04/06 04:05:40;;;;;;;12.88;10.48;;;3.60;99.90;;;;;;5040672;28;20367;-73
2023/04/06 04:08:07;;;;;;;11.60;10.43;;;3.60;99.90;;;;;;5053277;28;20222;-72
2023/04/06 04:10:34;;;;;;;16.55;10.50;;;3.60;99.90;;;;;;5047836;28;20290;-75
2023/04/06 04:13:01;;;;;;;11.55;10.30;;;3.60;99.90;;;;;;5039678;28;20251;-74
2023/04/06 04:15:29;;;;;;;14.30;11.95;;;3.70;99.90;;;;;;5048541;28;20203;-73
2023/04/06 04:17:56;;;;;;;14.73;10.88;;;3.70;99.90;;;;;;5049026;28;20230;-74
2023/04/06 04:20:23;;;;;;;12.10;10.90;;;3.70;99.90;;;;;;5039284;28;20215;-74
2023/04/06 04:22:49;;;;;;;19.25;11.73;;;3.70;99.90;;;;;;5048191;28;20318;-73
2023/04/06 04:25:17;;;;;;;13.95;10.68;;;3.70;99.90;;;;;;5040805;28;20227;-71
2023/04/06 04:27:43;;;;;;;11.38;10.20;;;3.70;99.90;;;;;;5045618;28;20212;-75
2023/04/06 04:30:11;;;;;;;12.90;10.98;;;3.60;99.90;;;;;;5041634;28;20282;-71
2023/04/06 04:32:39;;;;;;;14.23;11.68;;;3.60;99.90;;;;;;5038508;28;20274;-74
2023/04/06 04:35:07;;;;;;;13.00;11.10;;;3.60;99.90;;;;;;5040981;28;20196;-73
2023/04/06 04:37:34;;;;;;;13.05;11.23;;;3.60;99.90;;;;;;5047955;28;20305;-72
2023/04/06 04:40:01;;;;;;;16.92;13.90;;;3.60;99.90;;;;;;5039074;28;20223;-73
2023/04/06 04:42:28;;;;;;;14.98;11.65;;;3.60;99.90;;;;;;5038157;28;20223;-73
2023/04/06 04:44:55;;;;;;;14.75;12.55;;;3.70;99.90;;;;;;5036213;28;20291;-73
2023/04/06 04:47:22;;;;;;;14.73;13.23;;;3.70;99.90;;;;;;5038961;28;20290;-75
2023/04/06 04:49:50;;;;;;;14.60;12.38;;;3.70;99.80;;;;;;5035368;28;20240;-74
2023/04/06 04:52:17;;;;;;;16.95;13.23;;;3.70;99.70;;;;;;5045050;28;20256;-75
2023/04/06 04:54:44;;;;;;;18.35;12.38;;;3.70;99.60;;;;;;5038120;28;20674;-74
2023/04/06 04:57:11;;;;;;;15.13;12.38;;;3.70;99.60;;;;;;5043001;28;20231;-71
2023/04/06 04:59:38;;;;;;;16.05;12.88;;;3.70;99.60;;;;;;5047764;28;20226;-76
2023/04/06 05:02:05;;;;;;;22.02;13.20;;;3.60;99.60;;;;;;5038285;28;20279;-77
2023/04/06 05:04:31;;;;;;;19.48;12.70;;;3.60;99.50;;;;;;5039347;28;20661;-73
2023/04/06 05:07:07;;;;;;;17.27;13.52;;;3.60;99.60;;;;;;5039426;28;20199;-72
2023/04/06 05:09:34;;;;;;;15.43;12.68;;;3.60;99.40;;;;;;5049006;28;20225;-72
2023/04/06 05:12:02;;;;;;;18.38;12.60;;;3.60;99.60;;;;;;5043170;28;20215;-75
2023/04/06 05:14:29;;;;;;;15.77;13.07;;;3.70;99.10;;;;;;5038744;28;20286;-74
2023/04/06 05:16:56;;;;;;;18.58;11.05;;;3.70;98.80;;;;;;5036560;28;20231;-73
2023/04/06 05:19:23;;;;;;;15.70;12.02;;;3.70;98.40;;;;;;5034715;28;20203;-75
2023/04/06 05:21:50;;;;;;;18.23;11.68;;;3.80;98.10;;;;;;5039148;28;20286;-72
2023/04/06 05:24:18;;;;;;;20.67;11.98;;;3.80;98.00;;;;;;5047265;28;20330;-73
2023/04/06 05:26:45;;;;;;;17.15;13.68;;;3.80;98.00;;;;;;5036180;28;20288;-71
2023/04/06 05:29:12;;;;;;;17.15;12.82;;;3.90;98.00;;;;;;5041500;28;20299;-75
2023/04/06 05:31:39;;;;;;;20.17;12.88;;;4.00;97.80;;;;;;5039285;28;21142;-74
2023/04/06 05:34:06;;;;;;;20.33;13.57;;;4.00;97.70;;;;;;5042642;28;20306;-74
2023/04/06 05:36:33;;;;;;;27.58;13.98;;;4.00;97.70;;;;;;5048429;28;20632;-73
2023/04/06 05:38:59;;;;;;;20.60;14.50;;;4.10;97.40;;;;;;5038605;28;20290;-74
2023/04/06 05:41:28;;;;;;;27.30;14.90;;;4.20;97.60;;;;;;5033756;28;20303;-72
2023/04/06 05:43:55;;;;;;;21.50;13.48;;;4.50;97.50;;;;;;5036822;28;20769;-75
2023/04/06 05:46:22;;;;;;;15.30;12.05;;;4.50;97.30;;;;;;5040727;28;20568;-73
2023/04/06 05:48:49;;;;;;;14.05;11.75;;;5.00;97.30;;;;;;5052733;28;20634;-74
2023/04/06 05:51:16;;;;;;;23.02;13.15;;;5.50;96.10;;;;;;5042124;28;20197;-74
2023/04/06 05:53:42;;;;;;;11.93;10.70;;;6.10;94.90;;;;;;5036887;28;20312;-75
2023/04/06 05:56:09;;;;;;;13.40;11.13;;;6.70;93.30;;;;;;5035154;28;20291;-75
2023/04/06 05:58:38;;;;;;;17.33;13.50;;;7.10;92.30;;;;;;5042267;28;20213;-74
2023/04/06 06:01:05;;;;;;;23.20;11.00;;;7.40;92.30;;;;;;5040873;28;20253;-77
2023/04/06 06:03:32;;;;;;;14.52;10.10;;;8.20;91.40;;;;;;5038296;28;20226;-75
2023/04/06 06:06:02;;;;;;;17.27;11.38;;;9.20;90.00;;;;;;5046471;28;20239;-76
2023/04/06 06:08:29;;;;;;;15.35;10.57;;;10.10;85.20;;;;;;5042092;28;20648;-78
2023/04/06 06:10:56;;;;;;;15.32;10.63;;;10.90;81.70;;;;;;5042081;28;20215;-77
2023/04/06 06:13:23;;;;;;;22.88;10.40;;;11.40;79.50;;;;;;5040604;28;20592;-75
2023/04/06 06:15:52;;;;;;;13.40;9.48;;;11.60;77.60;;;;;;5040068;28;20199;-77
2023/04/06 06:18:20;;;;;;;11.98;9.10;;;12.00;77.10;;;;;;5048168;28;20230;-79
2023/04/06 06:20:48;;;;;;;9.63;8.68;;;12.60;75.10;;;;;;5037503;28;20200;-79
2023/04/06 06:23:15;;;;;;;9.70;8.68;;;12.90;73.10;;;;;;5050047;28;20223;-77
2023/04/06 06:25:42;;;;;;;15.63;10.40;;;12.70;73.70;;;;;;5042519;28;20333;-77
2023/04/06 06:28:09;;;;;;;10.30;9.30;;;12.90;72.60;;;;;;5040348;28;20771;-78
2023/04/06 06:30:36;;;;;;;10.70;9.60;;;12.90;72.30;;;;;;5041726;28;20213;-77
2023/04/06 06:33:04;;;;;;;9.48;8.48;;;13.30;71.90;;;;;;5037520;28;20236;-76
2023/04/06 06:35:31;;;;;;;9.70;8.25;;;13.50;69.80;;;;;;5047174;28;20650;-78
2023/04/06 06:37:59;;;;;;;10.27;8.27;;;13.80;69.30;;;;;;5047467;28;20611;-78
2023/04/06 06:40:26;;;;;;;10.25;9.00;;;13.90;68.70;;;;;;5055025;28;20287;-79
2023/04/06 06:42:53;;;;;;;9.13;8.20;;;14.20;67.50;;;;;;5055609;28;20260;-78
2023/04/06 06:45:20;;;;;;;11.23;9.10;;;14.80;67.60;;;;;;5054307;28;20197;-78
2023/04/06 06:47:47;;;;;;;9.13;8.30;;;15.10;66.00;;;;;;5048548;28;20554;-80
2023/04/06 06:50:16;;;;;;;8.50;7.70;;;15.10;65.20;;;;;;5048933;28;20289;-77
2023/04/06 06:52:44;;;;;;;10.50;8.25;;;15.20;65.00;;;;;;5047412;28;20231;-78
2023/04/06 06:55:11;;;;;;;14.97;8.77;;;15.40;64.50;;;;;;5055697;28;20203;-78
2023/04/06 06:57:38;;;;;;;12.93;8.73;;;15.40;64.10;;;;;;5050057;28;20448;-76
2023/04/06 07:00:07;;;;;;;13.20;9.50;;;15.50;64.20;;;;;;5046346;28;20518;-75
2023/04/06 07:02:36;;;;;;;8.93;7.40;;;15.80;63.60;;;;;;5050731;28;20477;-77
2023/04/06 07:05:03;;;;;;;10.87;8.33;;;16.00;62.10;;;;;;5055102;28;20443;-75
2023/04/06 07:07:33;;;;;;;11.20;8.90;;;16.20;61.50;;;;;;5050302;28;21002;-74
2023/04/06 07:10:00;;;;;;;9.43;8.43;;;16.20;60.90;;;;;;5051606;28;20576;-75
2023/04/06 07:12:27;;;;;;;9.00;8.10;;;16.20;61.10;;;;;;5049359;28;20517;-74
2023/04/06 07:14:54;;;;;;;9.30;8.50;;;16.10;60.90;;;;;;5046862;28;20269;-73
2023/04/06 07:17:22;;;;;;;9.30;8.50;;;16.00;61.20;;;;;;5042152;28;20520;-73
2023/04/06 07:19:49;;;;;;;13.20;8.70;;;16.10;61.40;;;;;;5042413;28;20978;-76
2023/04/06 07:22:16;;;;;;;14.63;9.50;;;16.20;60.80;;;;;;5042177;28;20471;-75
2023/04/06 07:24:45;;;;;;;8.97;8.07;;;16.20;60.70;;;;;;5043364;28;20477;-74
2023/04/06 07:27:12;;;;;;;11.40;8.90;;;16.10;60.80;;;;;;5042111;28;20534;-74
2023/04/06 07:29:39;;;;;;;13.33;8.63;;;16.00;60.50;;;;;;5046539;28;20481;-77
2023/04/06 07:32:06;;;;;;;10.70;9.70;;;16.40;61.00;;;;;;5045682;28;20964;-75
2023/04/06 07:34:33;;;;;;;9.07;8.07;;;16.90;59.60;;;;;;5045873;28;20496;-77
2023/04/06 07:37:02;;;;;;;9.60;8.70;;;16.70;58.70;;;;;;5049716;28;20438;-76
2023/04/06 07:39:30;;;;;;;10.30;8.20;;;16.80;58.50;;;;;;5039912;28;20477;-75
2023/04/06 07:41:59;;;;;;;10.80;9.40;;;16.80;58.60;;;;;;5044617;28;20439;-76
2023/04/06 07:44:26;;;;;;;11.77;9.50;;;16.90;58.80;;;;;;5047263;28;20849;-76
2023/04/06 07:46:53;;;;;;;11.70;8.70;;;16.90;59.10;;;;;;5038342;28;20479;-79
2023/04/06 07:49:20;;;;;;;12.20;8.63;;;16.90;58.80;;;;;;5048312;28;20470;-75
2023/04/06 07:51:47;;;;;;;11.30;9.33;;;16.30;59.00;;;;;;5035865;28;20447;-75
2023/04/06 07:54:15;;;;;;;12.10;8.40;;;16.50;59.40;;;;;;5046162;28;20525;-75
2023/04/06 07:56:42;;;;;;;15.30;9.30;;;16.60;60.30;;;;;;5053146;28;20526;-74
2023/04/06 07:59:11;;;;;;;9.70;7.70;;;16.60;59.90;;;;;;5053199;28;20469;-75
2023/04/06 08:01:49;;;;;;;8.77;7.93;;;16.50;59.20;;;;;;5046153;28;20800;-76
2023/04/06 08:04:16;;;;;;;9.47;8.37;;;16.00;59.10;;;;;;5054700;28;20544;-78
2023/04/06 08:06:43;;;;;;;10.13;8.50;;;16.70;59.60;;;;;;5049497;28;20761;-76
2023/04/06 08:09:10;;;;;;;10.33;9.33;;;17.00;59.20;;;;;;5049082;28;20478;-76
2023/04/06 08:11:38;;;;;;;9.40;8.53;;;17.80;58.30;;;;;;5043944;28;20465;-76
2023/04/06 08:14:05;;;;;;;9.83;8.80;;;17.30;57.80;;;;;;5039804;28;20977;-76
2023/04/06 08:16:33;;;;;;;9.50;8.60;;;17.20;57.60;;;;;;5045327;28;20529;-74
2023/04/06 08:19:00;;;;;;;9.97;8.50;;;17.20;57.80;;;;;;5045624;28;20953;-76
2023/04/06 08:21:27;;;;;;;10.87;8.10;;;17.20;58.20;;;;;;5049327;28;20511;-75
2023/04/06 08:23:54;;;;;;;12.30;9.23;;;17.30;58.00;;;;;;5044427;28;20469;-76
2023/04/06 08:26:21;;;;;;;9.27;8.50;;;17.40;58.10;;;;;;5045075;28;20523;-74
2023/04/06 08:28:48;;;;;;;8.77;7.83;;;17.90;57.90;;;;;;5038411;28;21057;-75
2023/04/06 08:31:15;;;;;;;9.70;8.63;;;18.20;57.70;;;;;;5049322;28;20458;-77
2023/04/06 08:33:45;;;;;;;9.60;8.60;;;17.50;57.90;;;;;;5045819;28;20546;-75
2023/04/06 08:36:26;;;;;;;10.47;8.23;;;17.90;57.20;;;;;;5048679;28;20937;-76
2023/04/06 08:39:08;;;;;;;9.53;8.47;;;18.30;57.10;;;;;;5047169;28;20532;-73
2023/04/06 08:41:43;;;;;;;10.33;9.00;;;19.00;56.80;;;;;;5024328;28;20450;-72
2023/04/06 08:44:45;;;;;;;10.10;8.37;;;19.00;55.60;;;;;;5040529;28;20551;-75
2023/04/06 08:47:15;;;;;;;7.73;7.00;;;19.50;56.10;;;;;;5022687;28;20492;-76
2023/04/06 08:49:47;;;;;;;10.37;8.30;;;19.70;55.10;;;;;;5042564;28;20580;-73
2023/04/06 08:52:35;;;;;;;8.10;7.30;;;19.60;54.20;;;;;;5045691;28;20455;-76
2023/04/06 08:55:12;;;;;;;9.73;8.73;;;19.30;54.70;;;;;;5026526;28;20446;-77
2023/04/06 08:57:46;;;;;;;9.53;8.50;;;19.20;55.30;;;;;;5045610;28;20455;-75
2023/04/06 09:00:20;;;;;;;9.20;8.20;;;19.00;55.30;;;;;;5047284;28;20446;-74
2023/04/06 09:02:59;;;;;;;12.73;8.03;;;18.60;55.30;;;;;;5041090;28;20548;-76
2023/04/06 09:05:28;;;;;;;9.13;8.23;;;19.10;55.70;;;;;;5040913;28;20457;-74
2023/04/06 09:08:17;;;;;;;11.03;8.50;;;19.10;55.70;;;;;;5032416;28;20458;-73
2023/04/06 09:10:59;;;;;;;11.80;9.90;;;18.50;54.50;;;;;;5037862;28;20498;-74
2023/04/06 09:13:51;;;;;;;10.63;9.57;;;19.10;54.90;;;;;;5041236;28;20960;-74
2023/04/06 09:16:36;;;;;;;9.87;8.43;;;19.00;55.10;;;;;;5045085;28;20473;-74
2023/04/06 09:19:17;;;;;;;11.87;9.07;;;18.80;54.50;;;;;;5038652;28;20448;-75
2023/04/06 09:21:53;;;;;;;9.77;8.77;;;19.00;55.20;;;;;;5042275;28;20457;-75
2023/04/06 09:24:25;;;;;;;9.93;8.27;;;18.60;55.10;;;;;;5032083;28;20446;-76
2023/04/06 09:27:16;;;;;;;12.47;9.63;;;18.60;56.00;;;;;;5040422;28;20487;-76
2023/04/06 09:29:50;;;;;;;10.50;9.37;;;18.80;55.70;;;;;;5034480;28;20490;-74
2023/04/06 09:32:46;;;;;;;9.03;8.13;;;19.00;55.20;;;;;;5028387;28;20457;-76
2023/04/06 09:35:36;;;;;;;12.50;9.87;;;19.00;55.00;;;;;;5039928;28;20456;-75
2023/04/06 09:38:15;;;;;;;10.67;9.67;;;19.10;54.90;;;;;;5042472;28;20619;-76
2023/04/06 09:44:10;;;;;;;9.13;8.27;;;19.00;54.40;;;;;;5022749;28;20540;-80
2023/04/06 09:46:42;;;;;;;12.13;9.90;;;18.70;55.10;;;;;;5044281;28;20534;-76
2023/04/06 09:49:15;;;;;;;10.40;9.40;;;18.60;54.90;;;;;;5038232;28;20483;-76
2023/04/06 09:51:54;;;;;;;11.60;10.40;;;18.20;55.20;;;;;;5042599;28;20893;-75
2023/04/06 09:54:33;;;;;;;11.73;10.50;;;17.60;56.60;;;;;;5014483;28;20441;-74
2023/04/06 09:57:15;;;;;;;10.97;9.97;;;17.40;57.70;;;;;;5033112;28;20196;-76
2023/04/06 10:00:13;;;;;;;10.07;8.40;;;17.50;56.80;;;;;;5027268;28;20935;-76
2023/04/06 10:02:53;;;;;;;12.10;9.80;;;17.80;56.60;;;;;;5038593;28;20486;-73
2023/04/06 10:05:37;;;;;;;11.43;9.40;;;17.70;56.00;;;;;;5036214;28;20462;-74
2023/04/06 10:08:16;;;;;;;12.80;11.50;;;17.30;56.00;;;;;;5028695;28;20967;-76
2023/04/06 10:10:55;;;;;;;11.37;10.20;;;16.90;56.90;;;;;;5045455;28;20478;-74
2023/04/06 10:13:31;;;;;;;12.03;10.83;;;16.80;57.40;;;;;;5036968;28;20468;-76
2023/04/06 10:16:13;;;;;;;14.33;11.00;;;16.70;57.40;;;;;;5042560;28;20481;-76
2023/04/06 10:18:46;;;;;;;12.02;10.73;;;16.60;57.70;;;;;;5044123;28;20449;-78
2023/04/06 10:21:30;;;;;;;13.35;11.40;;;16.00;58.10;;;;;;5048608;28;20203;-78
2023/04/06 10:24:13;;;;;;;13.97;10.90;;;15.80;58.80;;;;;;5042306;28;20345;-77
2023/04/06 10:27:03;;;;;;;12.87;10.93;;;16.00;59.20;;;;;;5024445;28;20475;-76
2023/04/06 10:29:51;;;;;;;12.80;11.02;;;15.70;59.70;;;;;;5040532;28;20561;-77
2023/04/06 10:32:37;;;;;;;14.88;11.40;;;15.30;60.20;;;;;;5047287;28;20234;-76
2023/04/06 10:35:23;;;;;;;15.60;11.30;;;15.40;62.10;;;;;;5041468;28;20247;-76
2023/04/06 10:38:05;;;;;;;13.33;12.00;;;15.60;61.60;;;;;;5044272;28;20231;-78
2023/04/06 10:40:48;;;;;;;13.65;11.38;;;15.20;60.70;;;;;;5052140;28;20443;-76
2023/04/06 10:43:24;;;;;;;14.77;12.50;;;15.00;60.90;;;;;;5042666;28;20627;-78
2023/04/06 10:46:12;;;;;;;14.23;11.63;;;14.90;63.00;;;;;;5050856;28;20286;-76
2023/04/06 10:48:46;;;;;;;13.52;12.23;;;14.70;62.70;;;;;;5033034;28;20215;-76
2023/04/06 10:51:30;;;;;;;13.75;12.35;;;14.30;62.40;;;;;;5038014;28;20777;-76
2023/04/06 10:54:14;;;;;;;15.70;12.48;;;14.50;63.80;;;;;;5027092;28;20701;-75
2023/04/06 10:56:43;;;;;;;13.10;11.88;;;14.70;62.70;;;;;;5039976;28;20207;-75
2023/04/06 10:59:32;;;;;;;16.77;11.88;;;14.70;63.20;;;;;;5044168;28;20226;-74
2023/04/06 11:02:17;;;;;;;12.73;11.50;;;14.80;64.10;;;;;;5043047;28;20203;-75
2023/04/06 11:05:01;;;;;;;14.02;11.40;;;14.70;64.20;;;;;;5038472;28;20238;-75
2023/04/06 11:07:35;;;;;;;12.98;11.38;;;15.00;63.80;;;;;;5019000;28;20827;-75
2023/04/06 11:10:12;;;;;;;15.00;11.68;;;14.90;63.50;;;;;;5045698;28;20302;-74
2023/04/06 11:13:08;;;;;;;15.10;11.70;;;14.80;63.70;;;;;;5032393;28;20235;-75
2023/04/06 11:15:50;;;;;;;11.52;10.32;;;14.70;63.10;;;;;;5047709;28;20208;-74
2023/04/06 11:18:21;;;;;;;14.63;11.15;;;14.40;62.30;;;;;;5043953;28;20634;-78
2023/04/06 11:20:54;;;;;;;12.45;10.60;;;14.10;62.70;;;;;;5048465;28;20210;-75
2023/04/06 11:23:34;;;;;;;14.77;12.90;;;14.30;63.30;;;;;;5042849;28;20227;-74
2023/04/06 11:26:17;;;;;;;12.52;10.98;;;14.70;63.50;;;;;;5053034;28;20265;-75
2023/04/06 11:28:48;;;;;;;13.07;11.68;;;14.60;63.10;;;;;;5044085;28;20205;-75
2023/04/06 11:34:04;;;;;;;14.80;12.13;;;14.70;63.60;;;;;;5047347;28;20237;-76
2023/04/06 11:36:35;;;;;;;13.07;11.70;;;14.60;62.70;;;;;;5044901;28;20239;-75
2023/04/06 11:39:07;;;;;;;12.88;11.40;;;14.60;61.60;;;;;;5043182;28;20200;-72
2023/04/06 11:41:45;;;;;;;13.32;11.07;;;14.80;61.50;;;;;;5046846;28;20202;-74
2023/04/06 11:44:31;;;;;;;14.77;11.82;;;14.90;60.40;;;;;;5041487;28;20223;-73
2023/04/06 11:47:29;;;;;;;15.05;12.35;;;15.00;59.70;;;;;;5053263;28;20206;-74
2023/04/06 11:50:06;;;;;;;13.27;11.77;;;15.00;61.50;;;;;;5029242;28;20307;-74
2023/04/06 11:52:46;;;;;;;14.40;10.43;;;15.00;59.50;;;;;;5045908;28;20232;-75
2023/04/06 11:55:20;;;;;;;11.60;10.40;;;15.20;59.00;;;;;;5023786;28;20207;-74
2023/04/06 11:57:51;;;;;;;12.75;10.48;;;14.90;57.50;;;;;;5024795;28;20211;-73
2023/04/06 12:00:25;;;;;;;14.40;11.70;;;15.00;58.20;;;;;;5042424;28;20255;-74
2023/04/06 12:02:59;;;;;;;14.57;11.13;;;14.70;57.20;;;;;;5038255;28;20232;-74
2023/04/06 12:05:32;;;;;;;12.75;10.65;;;14.90;57.80;;;;;;5043572;28;20211;-74
2023/04/06 12:08:07;;;;;;;13.13;11.80;;;14.80;57.70;;;;;;5040169;28;20258;-75
2023/04/06 12:10:39;;;;;;;14.73;11.30;;;14.70;57.80;;;;;;5046882;28;20697;-75
2023/04/06 12:13:11;;;;;;;14.98;11.43;;;14.60;58.20;;;;;;5045282;28;20224;-78
2023/04/06 12:15:39;;;;;;;16.88;11.10;;;14.50;57.80;;;;;;5044828;28;20201;-77
2023/04/06 12:18:12;;;;;;;17.33;11.30;;;14.30;57.90;;;;;;5045319;28;20212;-77
2023/04/06 12:20:45;;;;;;;18.88;12.48;;;14.40;58.20;;;;;;5041986;28;20261;-77
2023/04/06 12:23:17;;;;;;;12.05;10.60;;;14.50;58.10;;;;;;5046074;28;20219;-77
2023/04/06 12:25:45;;;;;;;17.80;11.55;;;14.60;58.00;;;;;;5044412;28;20236;-77
2023/04/06 12:28:17;;;;;;;13.27;11.10;;;14.60;57.10;;;;;;5048543;28;20258;-78
2023/04/06 12:30:55;;;;;;;14.02;11.48;;;14.70;57.40;;;;;;5044921;28;20243;-78
2023/04/06 12:33:35;;;;;;;13.57;11.20;;;14.80;57.20;;;;;;5043935;28;20307;-78
2023/04/06 12:36:05;;;;;;;15.60;12.38;;;14.70;57.40;;;;;;5046261;28;20200;-76
2023/04/06 12:38:33;;;;;;;15.60;12.55;;;14.70;56.90;;;;;;5047492;28;20199;-74
2023/04/06 12:41:05;;;;;;;16.55;11.02;;;14.70;57.10;;;;;;5038680;28;20204;-79
2023/04/06 12:43:49;;;;;;;16.15;11.25;;;14.60;57.10;;;;;;5044118;28;20232;-77
2023/04/06 12:46:18;;;;;;;18.30;11.63;;;14.50;57.20;;;;;;5047982;28;20541;-77
2023/04/06 12:48:47;;;;;;;14.93;11.60;;;14.60;57.40;;;;;;5037581;28;20228;-77
2023/04/06 12:51:25;;;;;;;13.18;11.77;;;14.60;56.70;;;;;;5043632;28;20219;-75
2023/04/06 12:54:11;;;;;;;13.57;11.85;;;14.70;56.10;;;;;;5041302;28;20231;-74
2023/04/06 12:56:39;;;;;;;15.20;12.20;;;14.70;56.50;;;;;;5044354;28;20207;-75
2023/04/06 13:02:06;;;;;;;14.80;11.63;;;14.70;56.20;;;;;;5043128;28;20677;-76